Aérodrome :
LOGIN :

S'inscrire | Disclaimer

   EN    FR    IT 

 










Légende :    VFR   VFR Marginal   IFR   IFR Intensif   IFR Très Intensif
Visi : 
Plafond : 
>= 8 km
>= 3000ft
5 à 8 km
1000 à 3000 ft
1500m à 5 km
500 à 1000 ft
800 à 1500m
200 à 500 ft
< 800m
< 200 ft
Symboles :   Orages  Brouillard  Fortes neiges  Fortes précipitations  Vent > 20 kt
SIGMETs :   Divers  Orages  Givrage  Turbulence  Onde Orograph.  Cendres Volcan.







- Altitude de l'aérodrome : -15 ft
- Code IATA : RTM


EHRD - Rotterdam Zestienhoven

DERNIER METAR :
  • 191025Z AUTO 31014KT 270V010 9999 FEW037 10/04 Q1018 NOSIG

METARs EXPIRÉS :
  • 190955Z AUTO 31014KT 270V350 9999 FEW041 BKN046 09/03 Q1018 NOSIG
  • 190925Z AUTO 30010KT 270V340 9999 FEW046 08/04 Q1018 NOSIG
  • 190855Z AUTO 31012KT 270V360 9999 FEW010 07/03 Q1018 NOSIG
  • 190825Z AUTO 31011KT 270V340 9999 FEW032 BKN036 08/04 Q1017 NOSIG
  • 190755Z AUTO 31010KT 260V350 9999 FEW025 07/04 Q1017 NOSIG

TAF TAF EHRD
Valide du 19 à 06h jusqu'au 20 à 12h UTC


190510Z 1906/2012 31012KT 9999 SCT025
TEMPO 1906/1916 32018G28KT 7000 -SHRA SCT020CB BKN030
BECMG 1907/1910 31017G27KT
BECMG 1915/1918 30012KT
BECMG 1922/2001 27007KT
BECMG 2004/2007 19007KT 7000 RA SCT012 BKN020
BECMG 2010/2012 4000 OVC010
Pas de NOTAMs connus pour ce terrain.



MET'MAP, la Météo Aéronautique d'un coup d'oeil ! - Copyright ORBIFLY Décembre 2007 - Disclaimer

ORBIFLY MET'MAP TEAM :

Programmation & Développement : Alexandra Zaïnal
Conception & Développement : Baudouin d'Aumeries
Co-Programmation & Développement : Marc-Olivier Méhu
Soutien technique & logistique : Manuel Goepfert

Contact : metmap@orbifly.com




SOURCES & CREDITS :

   NOAA